Terminal Aerodrome Forecast
Issued by NWS

Home | Current Version | Previous Version | Text Only | Print | Product List | Glossary On
Versions: 1 2 3 4 5 6 7 8 9 10 11 12 13 14 15 16 17 18 19 20 21 22 23 24 25 26 27 28 29 30 31 32 33 34 35 36 37 38 39
000
FTUS44 KHGX 302323
TAFCXO
TAF
KCXO 302323Z 3100/3124 VRB05KT P6SM SCT250
     FM311000 16002KT P6SM SCT015 SCT150
     FM311500 20006KT P6SM SCT035 SCT150
     FM312100 22008KT P6SM VCTS BKN050CB PROB30 3121/3124 TSRA=

USA.gov is the U.S. government's official web portal to all federal, state and local government web resources and services.